タシュケント の空港の天気 - METARとTAF

タシケント空港 ( UTTT / TAS ) - ウズベキスタン タシュケント
飛行場実況気象(Metar)
観測時間06/18 00:00 UZT (06/17 19:00 UTC)
風向・風速北北東 4m/s
視程10km以上
天気現象
なし
気温24℃
湿度31%
気圧1008hPa
METARUTTT 171900Z 02008KT 360V070 CAVOK 24/06 Q1008 R08R/CLRD70 NOSIG
過去の天気等 Google飛行場航空写真 Wunderground天気予報

過去48時間のMETAR

飛行場予報(TAF)
発表時間: 6/17 22:00 UZT (6/17 17:00 UTC)
予報対象時間: 17日23時 UZT ~ 18日23時 UZT
風向・風速東北東 5m/s
視程10km以上
なし
18日1時 UZT ~ 18日11時 UZT に一時的に
風向・風速北西 9m/s
少しの積乱雲 雲底高度 1830m
TAF UTTT 171700Z 1718/1818 07010KT CAVOK
TEMPO 1720/1806 32018KT FEW060CB